^^
Station Historical Data
Daily Summary for April 5, 2017 Units:  Both    English   Metric
« Previous Day
Next Day »
Daily Weekly Monthly Yearly Custom
  High: Low: Average:
Temperature: 87.1 °F /  30.6 °C 54.9 °F /  12.7 °C 70.6 °F /  21.4 °C
Dew Point: 46.2 °F /  7.9 °C 35.6 °F /  2 °C 41 °F /  5 °C
Humidity: 58% 18% 37%
Wind Speed: 10.1mph /  16.3km/h - 1mph /  1.6km/h
Wind Gust: 11.0mph /  17.7km/h - -
Wind- - ESE
Pressure: 30.39 in /  1029 hPa 30.23 in /  1023.6 hPa -
Precipitation: 0.00 in /  0 mm    
Historical Graphs
 
 
Tabular Data for April 5, 2017
Time Temperature Dew Point Pressure Wind Wind Speed Wind Gust Humidity Rainfall Rate (Hourly) solar Conditions
00:03 60.4 °F /  15.8 °C 36.0 °F /  2.2 °C 30.38in /  1028.7hPa Calm   3.0mph /  4.8km/h 40% 0.00in /  0mm 0.0 W/m2
00:09 60.3 °F /  15.7 °C 35.8 °F /  2.1 °C 30.39in /  1029hPa Calm   3.0mph /  4.8km/h 40% 0.00in /  0mm 0.0 W/m2
00:15 60.1 °F /  15.6 °C 35.6 °F /  2 °C 30.39in /  1029hPa East 0.9mph /  1.4km/h 2.0mph /  3.2km/h 40% 0.00in /  0mm 0.0 W/m2
00:21 60.1 °F /  15.6 °C 35.6 °F /  2 °C 30.39in /  1029hPa Calm   1.0mph /  1.6km/h 40% 0.00in /  0mm 0.0 W/m2
00:27 59.7 °F /  15.4 °C 36.0 °F /  2.2 °C 30.38in /  1028.7hPa Calm     41% 0.00in /  0mm 0.0 W/m2
00:33 59.5 °F /  15.3 °C 35.8 °F /  2.1 °C 30.39in /  1029hPa Calm     41% 0.00in /  0mm 0.0 W/m2
00:39 59.5 °F /  15.3 °C 35.8 °F /  2.1 °C 30.38in /  1028.7hPa Calm     41% 0.00in /  0mm 0.0 W/m2
00:45 59.4 °F /  15.2 °C 36.3 °F /  2.4 °C 30.38in /  1028.7hPa Calm     42% 0.00in /  0mm 0.0 W/m2
00:52 59.2 °F /  15.1 °C 36.1 °F /  2.3 °C 30.38in /  1028.7hPa Calm     42% 0.00in /  0mm 0.0 W/m2
00:58 58.8 °F /  14.9 °C 35.8 °F /  2.1 °C 30.37in /  1028.3hPa Calm     42% 0.00in /  0mm 0.0 W/m2
01:04 58.6 °F /  14.8 °C 36.1 °F /  2.3 °C 30.37in /  1028.3hPa Calm     43% 0.00in /  0mm 0.0 W/m2
01:10 58.5 °F /  14.7 °C 36.0 °F /  2.2 °C 30.37in /  1028.3hPa Calm     43% 0.00in /  0mm 0.0 W/m2
01:16 58.3 °F /  14.6 °C 37.0 °F /  2.8 °C 30.37in /  1028.3hPa Calm     45% 0.00in /  0mm 0.0 W/m2
01:22 57.9 °F /  14.4 °C 36.1 °F /  2.3 °C 30.37in /  1028.3hPa Calm     44% 0.00in /  0mm 0.0 W/m2
01:28 57.7 °F /  14.3 °C 36.0 °F /  2.2 °C 30.37in /  1028.3hPa Calm     44% 0.00in /  0mm 0.0 W/m2
01:34 57.6 °F /  14.2 °C 35.8 °F /  2.1 °C 30.37in /  1028.3hPa Calm   1.0mph /  1.6km/h 44% 0.00in /  0mm 0.0 W/m2
01:41 57.6 °F /  14.2 °C 36.3 °F /  2.4 °C 30.37in /  1028.3hPa Calm     45% 0.00in /  0mm 0.0 W/m2
01:47 57.4 °F /  14.1 °C 36.1 °F /  2.3 °C 30.37in /  1028.3hPa Calm     45% 0.00in /  0mm 0.0 W/m2
01:53 57.4 °F /  14.1 °C 36.1 °F /  2.3 °C 30.37in /  1028.3hPa Calm     45% 0.00in /  0mm 0.0 W/m2
01:59 57.4 °F /  14.1 °C 36.1 °F /  2.3 °C 30.37in /  1028.3hPa Calm   2.0mph /  3.2km/h 45% 0.00in /  0mm 0.0 W/m2
02:05 57.4 °F /  14.1 °C 36.1 °F /  2.3 °C 30.36in /  1028hPa Calm   1.0mph /  1.6km/h 45% 0.00in /  0mm 0.0 W/m2
02:11 57.4 °F /  14.1 °C 36.1 °F /  2.3 °C 30.36in /  1028hPa Calm     45% 0.00in /  0mm 0.0 W/m2
02:17 57.4 °F /  14.1 °C 36.1 °F /  2.3 °C 30.36in /  1028hPa Calm   1.0mph /  1.6km/h 45% 0.00in /  0mm 0.0 W/m2
02:24 57.0 °F /  13.9 °C 36.0 °F /  2.2 °C 30.36in /  1028hPa Calm   2.0mph /  3.2km/h 45% 0.00in /  0mm 0.0 W/m2
02:30 57.0 °F /  13.9 °C 36.0 °F /  2.2 °C 30.36in /  1028hPa ESE 0.9mph /  1.4km/h 1.0mph /  1.6km/h 45% 0.00in /  0mm 0.0 W/m2
02:36 56.8 °F /  13.8 °C 36.3 °F /  2.4 °C 30.36in /  1028hPa Calm   3.0mph /  4.8km/h 46% 0.00in /  0mm 0.0 W/m2
02:42 56.7 °F /  13.7 °C 36.1 °F /  2.3 °C 30.36in /  1028hPa Calm   2.0mph /  3.2km/h 46% 0.00in /  0mm 0.0 W/m2
02:48 56.7 °F /  13.7 °C 36.7 °F /  2.6 °C 30.36in /  1028hPa Calm   1.0mph /  1.6km/h 47% 0.00in /  0mm 0.0 W/m2
02:54 56.5 °F /  13.6 °C 36.5 °F /  2.5 °C 30.36in /  1028hPa Calm   2.0mph /  3.2km/h 47% 0.00in /  0mm 0.0 W/m2
03:00 56.5 °F /  13.6 °C 36.5 °F /  2.5 °C 30.36in /  1028hPa Calm   1.0mph /  1.6km/h 47% 0.00in /  0mm 0.0 W/m2
03:07 56.5 °F /  13.6 °C 36.5 °F /  2.5 °C 30.36in /  1028hPa Calm     47% 0.00in /  0mm 0.0 W/m2
03:13 56.5 °F /  13.6 °C 37.0 °F /  2.8 °C 30.36in /  1028hPa Calm     48% 0.00in /  0mm 0.0 W/m2
03:19 56.3 °F /  13.5 °C 36.3 °F /  2.4 °C 30.36in /  1028hPa Calm   1.0mph /  1.6km/h 47% 0.00in /  0mm 0.0 W/m2
03:25 56.3 °F /  13.5 °C 36.3 °F /  2.4 °C 30.36in /  1028hPa SE 0.9mph /  1.4km/h 3.0mph /  4.8km/h 47% 0.00in /  0mm 0.0 W/m2
03:31 56.1 °F /  13.4 °C 36.7 °F /  2.6 °C 30.36in /  1028hPa Calm   4.0mph /  6.4km/h 48% 0.00in /  0mm 0.0 W/m2
03:37 56.1 °F /  13.4 °C 36.7 °F /  2.6 °C 30.37in /  1028.3hPa Calm     48% 0.00in /  0mm 0.0 W/m2
03:43 56.1 °F /  13.4 °C 36.7 °F /  2.6 °C 30.37in /  1028.3hPa Calm   2.0mph /  3.2km/h 48% 0.00in /  0mm 0.0 W/m2
03:50 56.1 °F /  13.4 °C 36.7 °F /  2.6 °C 30.36in /  1028hPa Calm     48% 0.00in /  0mm 0.0 W/m2
03:56 56.1 °F /  13.4 °C 36.1 °F /  2.3 °C 30.36in /  1028hPa Calm     47% 0.00in /  0mm 0.0 W/m2
04:02 56.3 °F /  13.5 °C 36.3 °F /  2.4 °C 30.36in /  1028hPa Calm   1.0mph /  1.6km/h 47% 0.00in /  0mm 0.0 W/m2
04:08 56.5 °F /  13.6 °C 37.0 °F /  2.8 °C 30.36in /  1028hPa Calm   1.0mph /  1.6km/h 48% 0.00in /  0mm 0.0 W/m2
04:14 56.7 °F /  13.7 °C 36.7 °F /  2.6 °C 30.36in /  1028hPa Calm   3.0mph /  4.8km/h 47% 0.00in /  0mm 0.0 W/m2
04:20 56.7 °F /  13.7 °C 36.7 °F /  2.6 °C 30.37in /  1028.3hPa Calm   5.0mph /  8km/h 47% 0.00in /  0mm 0.0 W/m2
04:26 56.7 °F /  13.7 °C 36.7 °F /  2.6 °C 30.36in /  1028hPa ENE 0.9mph /  1.4km/h 2.0mph /  3.2km/h 47% 0.00in /  0mm 0.0 W/m2
04:32 56.7 °F /  13.7 °C 37.2 °F /  2.9 °C 30.37in /  1028.3hPa East 0.9mph /  1.4km/h 3.0mph /  4.8km/h 48% 0.00in /  0mm 0.0 W/m2
04:38 56.5 °F /  13.6 °C 37.0 °F /  2.8 °C 30.37in /  1028.3hPa Calm   3.0mph /  4.8km/h 48% 0.00in /  0mm 0.0 W/m2
04:45 56.1 °F /  13.4 °C 37.2 °F /  2.9 °C 30.37in /  1028.3hPa Calm   2.0mph /  3.2km/h 49% 0.00in /  0mm 0.0 W/m2
04:51 56.1 °F /  13.4 °C 37.2 °F /  2.9 °C 30.38in /  1028.7hPa Calm   3.0mph /  4.8km/h 49% 0.00in /  0mm 0.0 W/m2
04:57 55.9 °F /  13.3 °C 37.6 °F /  3.1 °C 30.38in /  1028.7hPa East 0.9mph /  1.4km/h 1.0mph /  1.6km/h 50% 0.00in /  0mm 0.0 W/m2
05:03 55.9 °F /  13.3 °C 37.6 °F /  3.1 °C 30.37in /  1028.3hPa Calm   1.0mph /  1.6km/h 50% 0.00in /  0mm 0.0 W/m2
05:09 55.9 °F /  13.3 °C 37.6 °F /  3.1 °C 30.37in /  1028.3hPa East 0.9mph /  1.4km/h 3.0mph /  4.8km/h 50% 0.00in /  0mm 0.0 W/m2
05:15 55.8 °F /  13.2 °C 37.9 °F /  3.3 °C 30.38in /  1028.7hPa East 2.9mph /  4.7km/h 6.0mph /  9.7km/h 51% 0.00in /  0mm 0.0 W/m2
05:21 55.6 °F /  13.1 °C 37.8 °F /  3.2 °C 30.38in /  1028.7hPa Calm     51% 0.00in /  0mm 0.0 W/m2
05:27 55.4 °F /  13 °C 37.6 °F /  3.1 °C 30.38in /  1028.7hPa Calm   3.0mph /  4.8km/h 51% 0.00in /  0mm 0.0 W/m2
05:34 55.2 °F /  12.9 °C 37.9 °F /  3.3 °C 30.38in /  1028.7hPa Calm   1.0mph /  1.6km/h 52% 0.00in /  0mm 0.0 W/m2
05:40 55.2 °F /  12.9 °C 37.9 °F /  3.3 °C 30.38in /  1028.7hPa ESE 0.9mph /  1.4km/h 3.0mph /  4.8km/h 52% 0.00in /  0mm 0.0 W/m2
05:46 55.0 °F /  12.8 °C 38.3 °F /  3.5 °C 30.38in /  1028.7hPa Calm   3.0mph /  4.8km/h 53% 0.00in /  0mm 0.0 W/m2
05:52 54.9 °F /  12.7 °C 38.1 °F /  3.4 °C 30.37in /  1028.3hPa Calm   2.0mph /  3.2km/h 53% 0.00in /  0mm 0.0 W/m2
05:58 54.9 °F /  12.7 °C 38.1 °F /  3.4 °C 30.38in /  1028.7hPa Calm   3.0mph /  4.8km/h 53% 0.00in /  0mm 0.0 W/m2
06:04 54.9 °F /  12.7 °C 38.5 °F /  3.6 °C 30.38in /  1028.7hPa East 0.9mph /  1.4km/h 1.0mph /  1.6km/h 54% 0.00in /  0mm 0.0 W/m2
06:10 54.9 °F /  12.7 °C 38.5 °F /  3.6 °C 30.39in /  1029hPa ENE 0.9mph /  1.4km/h 2.0mph /  3.2km/h 54% 0.00in /  0mm 7.0 W/m2
06:16 54.9 °F /  12.7 °C 38.5 °F /  3.6 °C 30.39in /  1029hPa East 0.9mph /  1.4km/h 1.0mph /  1.6km/h 54% 0.00in /  0mm 11.0 W/m2
06:22 54.9 °F /  12.7 °C 39.0 °F /  3.9 °C 30.38in /  1028.7hPa Calm   1.0mph /  1.6km/h 55% 0.00in /  0mm 14.0 W/m2
06:28 54.9 °F /  12.7 °C 39.0 °F /  3.9 °C 30.38in /  1028.7hPa East 0.9mph /  1.4km/h 2.0mph /  3.2km/h 55% 0.00in /  0mm 16.0 W/m2
06:35 54.9 °F /  12.7 °C 39.4 °F /  4.1 °C 30.39in /  1029hPa Calm     56% 0.00in /  0mm 18.0 W/m2
06:41 54.9 °F /  12.7 °C 39.4 °F /  4.1 °C 30.39in /  1029hPa Calm     56% 0.00in /  0mm 21.0 W/m2
06:47 55.0 °F /  12.8 °C 40.5 °F /  4.7 °C 30.39in /  1029hPa Calm     58% 0.00in /  0mm 23.0 W/m2
06:53 55.2 °F /  12.9 °C 40.3 °F /  4.6 °C 30.38in /  1028.7hPa Calm   1.0mph /  1.6km/h 57% 0.00in /  0mm 25.0 W/m2
06:59 55.6 °F /  13.1 °C 41.0 °F /  5 °C 30.38in /  1028.7hPa Calm     58% 0.00in /  0mm 25.0 W/m2
07:05 55.8 °F /  13.2 °C 41.2 °F /  5.1 °C 30.39in /  1029hPa Calm     58% 0.00in /  0mm 26.0 W/m2
07:11 56.1 °F /  13.4 °C 41.5 °F /  5.3 °C 30.39in /  1029hPa Calm     58% 0.00in /  0mm 28.0 W/m2
07:17 56.7 °F /  13.7 °C 42.1 °F /  5.6 °C 30.39in /  1029hPa Calm   1.0mph /  1.6km/h 58% 0.00in /  0mm 30.0 W/m2
07:24 57.2 °F /  14 °C 42.1 °F /  5.6 °C 30.39in /  1029hPa Calm     57% 0.00in /  0mm 32.0 W/m2
07:30 57.7 °F /  14.3 °C 42.6 °F /  5.9 °C 30.39in /  1029hPa Calm     57% 0.00in /  0mm 33.0 W/m2
07:36 58.5 °F /  14.7 °C 42.8 °F /  6 °C 30.39in /  1029hPa Calm     56% 0.00in /  0mm 35.0 W/m2
07:42 59.4 °F /  15.2 °C 43.2 °F /  6.2 °C 30.39in /  1029hPa Calm     55% 0.00in /  0mm 35.0 W/m2
07:48 60.4 °F /  15.8 °C 44.2 °F /  6.8 °C 30.39in /  1029hPa Calm   1.0mph /  1.6km/h 55% 0.00in /  0mm 37.0 W/m2
07:54 62.1 °F /  16.7 °C 44.2 °F /  6.8 °C 30.39in /  1029hPa Calm   2.0mph /  3.2km/h 52% 0.00in /  0mm 39.0 W/m2
08:01 63.3 °F /  17.4 °C 44.4 °F /  6.9 °C 30.39in /  1029hPa Calm     50% 0.00in /  0mm 40.0 W/m2
08:07 64.6 °F /  18.1 °C 44.4 °F /  6.9 °C 30.39in /  1029hPa Calm   1.0mph /  1.6km/h 48% 0.00in /  0mm 40.0 W/m2
08:15 66.0 °F /  18.9 °C 44.6 °F /  7 °C 30.39in /  1029hPa Calm   2.0mph /  3.2km/h 46% 0.00in /  0mm 42.0 W/m2
08:21 67.3 °F /  19.6 °C 44.6 °F /  7 °C 30.39in /  1029hPa Calm   1.0mph /  1.6km/h 44% 0.00in /  0mm 44.0 W/m2
08:27 68.5 °F /  20.3 °C 44.6 °F /  7 °C 30.39in /  1029hPa NE 0.9mph /  1.4km/h 4.0mph /  6.4km/h 42% 0.00in /  0mm 46.0 W/m2
08:33 69.8 °F /  21 °C 43.7 °F /  6.5 °C 30.39in /  1029hPa East 6.0mph /  9.7km/h 9.0mph /  14.5km/h 39% 0.00in /  0mm 47.0 W/m2
08:39 71.1 °F /  21.7 °C 42.8 °F /  6 °C 30.39in /  1029hPa NNE 6.9mph /  11.1km/h 8.0mph /  12.9km/h 36% 0.00in /  0mm 56.0 W/m2
08:46 72.3 °F /  22.4 °C 42.4 °F /  5.8 °C 30.39in /  1029hPa ENE 10.1mph /  16.3km/h 10.1mph /  16.3km/h 34% 0.00in /  0mm 585.0 W/m2
08:52 73.8 °F /  23.2 °C 42.8 °F /  6 °C 30.39in /  1029hPa NNE 2.9mph /  4.7km/h 7.0mph /  11.3km/h 33% 0.00in /  0mm 605.0 W/m2
08:58 74.8 °F /  23.8 °C 42.3 °F /  5.7 °C 30.39in /  1029hPa NE 4.0mph /  6.4km/h 7.0mph /  11.3km/h 31% 0.00in /  0mm 624.0 W/m2
09:04 75.7 °F /  24.3 °C 42.1 °F /  5.6 °C 30.39in /  1029hPa NE 4.9mph /  7.9km/h 9.0mph /  14.5km/h 30% 0.00in /  0mm 647.0 W/m2
09:10 76.6 °F /  24.8 °C 41.2 °F /  5.1 °C 30.39in /  1029hPa NNE 0.9mph /  1.4km/h 6.0mph /  9.7km/h 28% 0.00in /  0mm 663.0 W/m2
09:16 77.2 °F /  25.1 °C 41.5 °F /  5.3 °C 30.39in /  1029hPa NE 2.9mph /  4.7km/h 9.0mph /  14.5km/h 28% 0.00in /  0mm 679.0 W/m2
09:22 77.7 °F /  25.4 °C 43.0 °F /  6.1 °C 30.38in /  1028.7hPa Calm   7.0mph /  11.3km/h 29% 0.00in /  0mm 696.0 W/m2
09:28 78.3 °F /  25.7 °C 41.5 °F /  5.3 °C 30.38in /  1028.7hPa ENE 4.9mph /  7.9km/h 11.0mph /  17.7km/h 27% 0.00in /  0mm 712.0 W/m2
09:34 78.4 °F /  25.8 °C 41.7 °F /  5.4 °C 30.38in /  1028.7hPa NNW 0.9mph /  1.4km/h 9.0mph /  14.5km/h 27% 0.00in /  0mm 728.0 W/m2
09:41 78.8 °F /  26 °C 41.0 °F /  5 °C 30.37in /  1028.3hPa NNE 2.9mph /  4.7km/h 8.0mph /  12.9km/h 26% 0.00in /  0mm 749.0 W/m2
09:47 79.0 °F /  26.1 °C 41.2 °F /  5.1 °C 30.37in /  1028.3hPa NNE 2.9mph /  4.7km/h 4.0mph /  6.4km/h 26% 0.00in /  0mm 761.0 W/m2
09:53 79.0 °F /  26.1 °C 42.1 °F /  5.6 °C 30.37in /  1028.3hPa ENE 4.9mph /  7.9km/h 8.0mph /  12.9km/h 27% 0.00in /  0mm 777.0 W/m2
09:59 79.3 °F /  26.3 °C 40.5 °F /  4.7 °C 30.37in /  1028.3hPa NNW 0.9mph /  1.4km/h 6.0mph /  9.7km/h 25% 0.00in /  0mm 789.0 W/m2
10:05 80.1 °F /  26.7 °C 41.0 °F /  5 °C 30.37in /  1028.3hPa North 8.1mph /  13km/h 10.0mph /  16.1km/h 25% 0.00in /  0mm 800.0 W/m2
10:11 80.2 °F /  26.8 °C 42.3 °F /  5.7 °C 30.37in /  1028.3hPa North 4.9mph /  7.9km/h 6.0mph /  9.7km/h 26% 0.00in /  0mm 809.0 W/m2
10:17 80.4 °F /  26.9 °C 41.4 °F /  5.2 °C 30.36in /  1028hPa NNE 2.0mph /  3.2km/h 7.0mph /  11.3km/h 25% 0.00in /  0mm 824.0 W/m2
10:24 80.8 °F /  27.1 °C 40.6 °F /  4.8 °C 30.36in /  1028hPa ESE 0.9mph /  1.4km/h 9.0mph /  14.5km/h 24% 0.00in /  0mm 835.0 W/m2
10:30 81.1 °F /  27.3 °C 41.0 °F /  5 °C 30.36in /  1028hPa NE 6.0mph /  9.7km/h 9.0mph /  14.5km/h 24% 0.00in /  0mm 847.0 W/m2
10:36 81.1 °F /  27.3 °C 41.0 °F /  5 °C 30.36in /  1028hPa NNE 6.0mph /  9.7km/h 7.0mph /  11.3km/h 24% 0.00in /  0mm 854.0 W/m2
10:42 81.5 °F /  27.5 °C 40.1 °F /  4.5 °C 30.36in /  1028hPa Calm   2.0mph /  3.2km/h 23% 0.00in /  0mm 856.0 W/m2
10:48 81.9 °F /  27.7 °C 41.5 °F /  5.3 °C 30.36in /  1028hPa ENE 2.0mph /  3.2km/h 7.0mph /  11.3km/h 24% 0.00in /  0mm 867.0 W/m2
10:54 82.0 °F /  27.8 °C 41.7 °F /  5.4 °C 30.36in /  1028hPa NE 2.0mph /  3.2km/h 5.0mph /  8km/h 24% 0.00in /  0mm 874.0 W/m2
11:01 82.0 °F /  27.8 °C 41.7 °F /  5.4 °C 30.35in /  1027.7hPa Calm   2.0mph /  3.2km/h 24% 0.00in /  0mm 874.0 W/m2
11:06 82.2 °F /  27.9 °C 41.9 °F /  5.5 °C 30.35in /  1027.7hPa ESE 4.9mph /  7.9km/h 6.0mph /  9.7km/h 24% 0.00in /  0mm 875.0 W/m2
11:13 82.8 °F /  28.2 °C 40.1 °F /  4.5 °C 30.35in /  1027.7hPa ENE 2.9mph /  4.7km/h 9.0mph /  14.5km/h 22% 0.00in /  0mm 886.0 W/m2
11:19 83.5 °F /  28.6 °C 39.4 °F /  4.1 °C 30.34in /  1027.3hPa Calm   5.0mph /  8km/h 21% 0.00in /  0mm 884.0 W/m2
11:25 83.7 °F /  28.7 °C 40.8 °F /  4.9 °C 30.34in /  1027.3hPa NNE 4.0mph /  6.4km/h 7.0mph /  11.3km/h 22% 0.00in /  0mm 902.0 W/m2
11:31 83.8 °F /  28.8 °C 41.0 °F /  5 °C 30.34in /  1027.3hPa East 4.0mph /  6.4km/h 6.0mph /  9.7km/h 22% 0.00in /  0mm 905.0 W/m2
11:37 83.7 °F /  28.7 °C 40.8 °F /  4.9 °C 30.34in /  1027.3hPa NE 4.0mph /  6.4km/h 5.0mph /  8km/h 22% 0.00in /  0mm 904.0 W/m2
11:43 83.8 °F /  28.8 °C 39.7 °F /  4.3 °C 30.33in /  1027hPa ENE 2.0mph /  3.2km/h 5.0mph /  8km/h 21% 0.00in /  0mm 905.0 W/m2
11:49 84.0 °F /  28.9 °C 39.9 °F /  4.4 °C 30.33in /  1027hPa Calm   5.0mph /  8km/h 21% 0.00in /  0mm 891.0 W/m2
11:55 83.7 °F /  28.7 °C 40.8 °F /  4.9 °C 30.32in /  1026.6hPa ENE 4.0mph /  6.4km/h 10.0mph /  16.1km/h 22% 0.00in /  0mm 898.0 W/m2
12:01 83.8 °F /  28.8 °C 41.0 °F /  5 °C 30.32in /  1026.6hPa East 2.0mph /  3.2km/h 11.0mph /  17.7km/h 22% 0.00in /  0mm 904.0 W/m2
12:07 84.4 °F /  29.1 °C 40.1 °F /  4.5 °C 30.32in /  1026.6hPa NNE 6.9mph /  11.1km/h 8.0mph /  12.9km/h 21% 0.00in /  0mm 900.0 W/m2
12:13 84.4 °F /  29.1 °C 40.1 °F /  4.5 °C 30.31in /  1026.3hPa Calm   3.0mph /  4.8km/h 21% 0.00in /  0mm 900.0 W/m2
12:19 84.4 °F /  29.1 °C 41.4 °F /  5.2 °C 30.31in /  1026.3hPa Calm   7.0mph /  11.3km/h 22% 0.00in /  0mm 882.0 W/m2
12:26 84.0 °F /  28.9 °C 39.9 °F /  4.4 °C 30.31in /  1026.3hPa North 0.9mph /  1.4km/h 6.0mph /  9.7km/h 21% 0.00in /  0mm 875.0 W/m2
12:32 84.2 °F /  29 °C 38.8 °F /  3.8 °C 30.30in /  1026hPa ENE 0.9mph /  1.4km/h 10.0mph /  16.1km/h 20% 0.00in /  0mm 889.0 W/m2
12:38 84.4 °F /  29.1 °C 39.0 °F /  3.9 °C 30.30in /  1026hPa East 6.0mph /  9.7km/h 10.0mph /  16.1km/h 20% 0.00in /  0mm 874.0 W/m2
12:44 84.6 °F /  29.2 °C 40.3 °F /  4.6 °C 30.29in /  1025.6hPa ESE 2.9mph /  4.7km/h 5.0mph /  8km/h 21% 0.00in /  0mm 868.0 W/m2
12:50 84.6 °F /  29.2 °C 40.3 °F /  4.6 °C 30.29in /  1025.6hPa ESE 8.1mph /  13km/h 9.0mph /  14.5km/h 21% 0.00in /  0mm 867.0 W/m2
12:56 84.7 °F /  29.3 °C 40.5 °F /  4.7 °C 30.29in /  1025.6hPa SE 0.9mph /  1.4km/h 7.0mph /  11.3km/h 21% 0.00in /  0mm 854.0 W/m2
13:02 84.9 °F /  29.4 °C 40.6 °F /  4.8 °C 30.29in /  1025.6hPa Calm   7.0mph /  11.3km/h 21% 0.00in /  0mm 844.0 W/m2
13:08 85.5 °F /  29.7 °C 41.0 °F /  5 °C 30.28in /  1025.3hPa NE 2.0mph /  3.2km/h 8.0mph /  12.9km/h 21% 0.00in /  0mm 838.0 W/m2
13:15 85.5 °F /  29.7 °C 39.7 °F /  4.3 °C 30.28in /  1025.3hPa ENE 8.9mph /  14.3km/h 10.0mph /  16.1km/h 20% 0.00in /  0mm 823.0 W/m2
13:21 85.3 °F /  29.6 °C 39.7 °F /  4.3 °C 30.28in /  1025.3hPa Calm   2.0mph /  3.2km/h 20% 0.00in /  0mm 816.0 W/m2
13:27 85.5 °F /  29.7 °C 38.5 °F /  3.6 °C 30.27in /  1024.9hPa NE 2.9mph /  4.7km/h 3.0mph /  4.8km/h 19% 0.00in /  0mm 800.0 W/m2
13:33 86.2 °F /  30.1 °C 39.0 °F /  3.9 °C 30.27in /  1024.9hPa WNW 0.9mph /  1.4km/h 6.0mph /  9.7km/h 19% 0.00in /  0mm 788.0 W/m2
13:39 86.5 °F /  30.3 °C 37.9 °F /  3.3 °C 30.27in /  1024.9hPa NNW 0.9mph /  1.4km/h 6.0mph /  9.7km/h 18% 0.00in /  0mm 777.0 W/m2
13:45 86.5 °F /  30.3 °C 39.4 °F /  4.1 °C 30.27in /  1024.9hPa SSE 8.1mph /  13km/h 11.0mph /  17.7km/h 19% 0.00in /  0mm 758.0 W/m2
13:51 85.6 °F /  29.8 °C 39.9 °F /  4.4 °C 30.26in /  1024.6hPa Calm   3.0mph /  4.8km/h 20% 0.00in /  0mm 749.0 W/m2
13:58 85.3 °F /  29.6 °C 39.7 °F /  4.3 °C 30.26in /  1024.6hPa ENE 0.9mph /  1.4km/h 7.0mph /  11.3km/h 20% 0.00in /  0mm 740.0 W/m2
14:04 85.3 °F /  29.6 °C 41.0 °F /  5 °C 30.26in /  1024.6hPa SSE 0.9mph /  1.4km/h 5.0mph /  8km/h 21% 0.00in /  0mm 715.0 W/m2
14:10 85.5 °F /  29.7 °C 39.7 °F /  4.3 °C 30.26in /  1024.6hPa ESE 0.9mph /  1.4km/h 5.0mph /  8km/h 20% 0.00in /  0mm 701.0 W/m2
14:16 85.6 °F /  29.8 °C 39.9 °F /  4.4 °C 30.26in /  1024.6hPa North 4.0mph /  6.4km/h 6.0mph /  9.7km/h 20% 0.00in /  0mm 677.0 W/m2
14:22 85.8 °F /  29.9 °C 41.4 °F /  5.2 °C 30.26in /  1024.6hPa ESE 4.9mph /  7.9km/h 5.0mph /  8km/h 21% 0.00in /  0mm 664.0 W/m2
14:28 86.2 °F /  30.1 °C 41.7 °F /  5.4 °C 30.25in /  1024.3hPa SE 6.0mph /  9.7km/h 8.0mph /  12.9km/h 21% 0.00in /  0mm 650.0 W/m2
14:34 85.8 °F /  29.9 °C 41.4 °F /  5.2 °C 30.25in /  1024.3hPa Calm   2.0mph /  3.2km/h 21% 0.00in /  0mm 636.0 W/m2
14:40 85.8 °F /  29.9 °C 40.1 °F /  4.5 °C 30.25in /  1024.3hPa WSW 4.9mph /  7.9km/h 5.0mph /  8km/h 20% 0.00in /  0mm 617.0 W/m2
14:47 85.5 °F /  29.7 °C 41.0 °F /  5 °C 30.24in /  1023.9hPa Calm   2.0mph /  3.2km/h 21% 0.00in /  0mm 587.0 W/m2
14:53 85.8 °F /  29.9 °C 41.4 °F /  5.2 °C 30.24in /  1023.9hPa NW 2.9mph /  4.7km/h 6.0mph /  9.7km/h 21% 0.00in /  0mm 577.0 W/m2
14:58 86.0 °F /  30 °C 40.3 °F /  4.6 °C 30.24in /  1023.9hPa NNE 4.0mph /  6.4km/h 8.0mph /  12.9km/h 20% 0.00in /  0mm 566.0 W/m2
15:03 86.2 °F /  30.1 °C 40.5 °F /  4.7 °C 30.24in /  1023.9hPa NNE 2.0mph /  3.2km/h 6.0mph /  9.7km/h 20% 0.00in /  0mm 552.0 W/m2
15:09 86.0 °F /  30 °C 40.3 °F /  4.6 °C 30.24in /  1023.9hPa Calm   7.0mph /  11.3km/h 20% 0.00in /  0mm 531.0 W/m2
15:15 86.2 °F /  30.1 °C 40.5 °F /  4.7 °C 30.24in /  1023.9hPa Calm   1.0mph /  1.6km/h 20% 0.00in /  0mm 519.0 W/m2
15:21 86.2 °F /  30.1 °C 40.5 °F /  4.7 °C 30.24in /  1023.9hPa Calm   7.0mph /  11.3km/h 20% 0.00in /  0mm 520.0 W/m2
15:27 86.5 °F /  30.3 °C 41.9 °F /  5.5 °C 30.24in /  1023.9hPa Calm   2.0mph /  3.2km/h 21% 0.00in /  0mm 487.0 W/m2
15:34 86.5 °F /  30.3 °C 41.9 °F /  5.5 °C 30.24in /  1023.9hPa NE 2.0mph /  3.2km/h 5.0mph /  8km/h 21% 0.00in /  0mm 476.0 W/m2
15:40 87.1 °F /  30.6 °C 43.7 °F /  6.5 °C 30.24in /  1023.9hPa East 2.9mph /  4.7km/h 4.0mph /  6.4km/h 22% 0.00in /  0mm 462.0 W/m2
15:46 86.9 °F /  30.5 °C 42.3 °F /  5.7 °C 30.24in /  1023.9hPa NE 2.0mph /  3.2km/h 5.0mph /  8km/h 21% 0.00in /  0mm 457.0 W/m2
15:52 86.5 °F /  30.3 °C 41.9 °F /  5.5 °C 30.24in /  1023.9hPa Calm   3.0mph /  4.8km/h 21% 0.00in /  0mm 401.0 W/m2
15:58 86.4 °F /  30.2 °C 41.9 °F /  5.5 °C 30.24in /  1023.9hPa SSW 0.9mph /  1.4km/h 4.0mph /  6.4km/h 21% 0.00in /  0mm 383.0 W/m2
16:04 86.5 °F /  30.3 °C 40.6 °F /  4.8 °C 30.24in /  1023.9hPa WSW 0.9mph /  1.4km/h 4.0mph /  6.4km/h 20% 0.00in /  0mm 343.0 W/m2
16:10 86.4 °F /  30.2 °C 41.9 °F /  5.5 °C 30.24in /  1023.9hPa Calm   7.0mph /  11.3km/h 21% 0.00in /  0mm 334.0 W/m2
16:16 86.0 °F /  30 °C 41.5 °F /  5.3 °C 30.24in /  1023.9hPa Calm   7.0mph /  11.3km/h 21% 0.00in /  0mm 313.0 W/m2
16:23 85.8 °F /  29.9 °C 42.6 °F /  5.9 °C 30.24in /  1023.9hPa Calm   3.0mph /  4.8km/h 22% 0.00in /  0mm 276.0 W/m2
16:29 85.5 °F /  29.7 °C 41.0 °F /  5 °C 30.24in /  1023.9hPa Calm   1.0mph /  1.6km/h 21% 0.00in /  0mm 179.0 W/m2
16:35 85.5 °F /  29.7 °C 42.3 °F /  5.7 °C 30.24in /  1023.9hPa East 2.0mph /  3.2km/h 4.0mph /  6.4km/h 22% 0.00in /  0mm 195.0 W/m2
16:41 85.1 °F /  29.5 °C 41.9 °F /  5.5 °C 30.24in /  1023.9hPa ESE 6.0mph /  9.7km/h 6.0mph /  9.7km/h 22% 0.00in /  0mm 76.0 W/m2
16:47 84.6 °F /  29.2 °C 41.5 °F /  5.3 °C 30.23in /  1023.6hPa Calm   4.0mph /  6.4km/h 22% 0.00in /  0mm 62.0 W/m2
16:53 84.0 °F /  28.9 °C 42.3 °F /  5.7 °C 30.24in /  1023.9hPa East 2.0mph /  3.2km/h 2.0mph /  3.2km/h 23% 0.00in /  0mm 65.0 W/m2
16:59 83.5 °F /  28.6 °C 41.7 °F /  5.4 °C 30.24in /  1023.9hPa ENE 0.9mph /  1.4km/h 2.0mph /  3.2km/h 23% 0.00in /  0mm 77.0 W/m2
17:06 82.9 °F /  28.3 °C 41.4 °F /  5.2 °C 30.24in /  1023.9hPa East 0.9mph /  1.4km/h 3.0mph /  4.8km/h 23% 0.00in /  0mm 62.0 W/m2
17:12 82.6 °F /  28.1 °C 42.1 °F /  5.6 °C 30.24in /  1023.9hPa East 0.9mph /  1.4km/h 1.0mph /  1.6km/h 24% 0.00in /  0mm 47.0 W/m2
17:18 82.0 °F /  27.8 °C 41.7 °F /  5.4 °C 30.24in /  1023.9hPa Calm   2.0mph /  3.2km/h 24% 0.00in /  0mm 33.0 W/m2
17:24 81.7 °F /  27.6 °C 42.4 °F /  5.8 °C 30.24in /  1023.9hPa Calm   4.0mph /  6.4km/h 25% 0.00in /  0mm 25.0 W/m2
17:30 81.3 °F /  27.4 °C 42.1 °F /  5.6 °C 30.24in /  1023.9hPa SE 0.9mph /  1.4km/h 4.0mph /  6.4km/h 25% 0.00in /  0mm 18.0 W/m2
17:36 81.0 °F /  27.2 °C 41.9 °F /  5.5 °C 30.24in /  1023.9hPa ESE 0.9mph /  1.4km/h 2.0mph /  3.2km/h 25% 0.00in /  0mm 11.0 W/m2
17:42 80.8 °F /  27.1 °C 41.7 °F /  5.4 °C 30.25in /  1024.3hPa ESE 0.9mph /  1.4km/h 1.0mph /  1.6km/h 25% 0.00in /  0mm 5.0 W/m2
17:48 80.2 °F /  26.8 °C 42.3 °F /  5.7 °C 30.25in /  1024.3hPa Calm   1.0mph /  1.6km/h 26% 0.00in /  0mm 0.0 W/m2
17:55 79.9 °F /  26.6 °C 41.9 °F /  5.5 °C 30.25in /  1024.3hPa Calm   1.0mph /  1.6km/h 26% 0.00in /  0mm 0.0 W/m2
18:01 79.3 °F /  26.3 °C 42.4 °F /  5.8 °C 30.25in /  1024.3hPa Calm   3.0mph /  4.8km/h 27% 0.00in /  0mm 0.0 W/m2
18:07 78.6 °F /  25.9 °C 42.8 °F /  6 °C 30.25in /  1024.3hPa ESE 0.9mph /  1.4km/h 1.0mph /  1.6km/h 28% 0.00in /  0mm 0.0 W/m2
18:13 78.3 °F /  25.7 °C 42.4 °F /  5.8 °C 30.26in /  1024.6hPa Calm   2.0mph /  3.2km/h 28% 0.00in /  0mm 0.0 W/m2
18:21 77.5 °F /  25.3 °C 42.8 °F /  6 °C 30.26in /  1024.6hPa Calm   1.0mph /  1.6km/h 29% 0.00in /  0mm 0.0 W/m2
18:27 77.2 °F /  25.1 °C 42.4 °F /  5.8 °C 30.26in /  1024.6hPa Calm   1.0mph /  1.6km/h 29% 0.00in /  0mm 0.0 W/m2
18:33 76.5 °F /  24.7 °C 43.5 °F /  6.4 °C 30.26in /  1024.6hPa Calm   1.0mph /  1.6km/h 31% 0.00in /  0mm 0.0 W/m2
18:39 75.7 °F /  24.3 °C 43.7 °F /  6.5 °C 30.27in /  1024.9hPa Calm   1.0mph /  1.6km/h 32% 0.00in /  0mm 0.0 W/m2
18:46 75.4 °F /  24.1 °C 44.2 °F /  6.8 °C 30.27in /  1024.9hPa Calm   1.0mph /  1.6km/h 33% 0.00in /  0mm 0.0 W/m2
18:52 74.8 °F /  23.8 °C 43.9 °F /  6.6 °C 30.27in /  1024.9hPa Calm   1.0mph /  1.6km/h 33% 0.00in /  0mm 0.0 W/m2
18:58 74.5 °F /  23.6 °C 44.2 °F /  6.8 °C 30.27in /  1024.9hPa Calm   1.0mph /  1.6km/h 34% 0.00in /  0mm 0.0 W/m2
19:04 73.9 °F /  23.3 °C 44.6 °F /  7 °C 30.27in /  1024.9hPa Calm   2.0mph /  3.2km/h 35% 0.00in /  0mm 0.0 W/m2
19:10 73.6 °F /  23.1 °C 44.2 °F /  6.8 °C 30.28in /  1025.3hPa Calm     35% 0.00in /  0mm 0.0 W/m2
19:16 73.2 °F /  22.9 °C 44.6 °F /  7 °C 30.28in /  1025.3hPa Calm     36% 0.00in /  0mm 0.0 W/m2
19:22 72.9 °F /  22.7 °C 44.4 °F /  6.9 °C 30.28in /  1025.3hPa Calm     36% 0.00in /  0mm 0.0 W/m2
19:29 72.3 °F /  22.4 °C 44.6 °F /  7 °C 30.28in /  1025.3hPa NE 0.9mph /  1.4km/h 1.0mph /  1.6km/h 37% 0.00in /  0mm 0.0 W/m2
19:35 71.8 °F /  22.1 °C 44.8 °F /  7.1 °C 30.28in /  1025.3hPa Calm     38% 0.00in /  0mm 0.0 W/m2
19:41 71.4 °F /  21.9 °C 45.1 °F /  7.3 °C 30.28in /  1025.3hPa Calm   1.0mph /  1.6km/h 39% 0.00in /  0mm 0.0 W/m2
19:47 71.1 °F /  21.7 °C 44.8 °F /  7.1 °C 30.28in /  1025.3hPa Calm     39% 0.00in /  0mm 0.0 W/m2
19:53 70.7 °F /  21.5 °C 44.6 °F /  7 °C 30.28in /  1025.3hPa Calm   1.0mph /  1.6km/h 39% 0.00in /  0mm 0.0 W/m2
19:59 70.3 °F /  21.3 °C 45.0 °F /  7.2 °C 30.29in /  1025.6hPa Calm     40% 0.00in /  0mm 0.0 W/m2
20:05 70.0 °F /  21.1 °C 44.6 °F /  7 °C 30.29in /  1025.6hPa Calm     40% 0.00in /  0mm 0.0 W/m2
20:11 69.4 °F /  20.8 °C 44.8 °F /  7.1 °C 30.29in /  1025.6hPa Calm     41% 0.00in /  0mm 0.0 W/m2
20:18 69.3 °F /  20.7 °C 44.6 °F /  7 °C 30.29in /  1025.6hPa Calm     41% 0.00in /  0mm 0.0 W/m2
20:26 68.7 °F /  20.4 °C 44.8 °F /  7.1 °C 30.29in /  1025.6hPa Calm     42% 0.00in /  0mm 0.0 W/m2
20:32 68.5 °F /  20.3 °C 44.6 °F /  7 °C 30.29in /  1025.6hPa Calm     42% 0.00in /  0mm 0.0 W/m2
20:38 68.4 °F /  20.2 °C 45.0 °F /  7.2 °C 30.29in /  1025.6hPa Calm     43% 0.00in /  0mm 0.0 W/m2
20:44 68.2 °F /  20.1 °C 44.8 °F /  7.1 °C 30.30in /  1026hPa Calm     43% 0.00in /  0mm 0.0 W/m2
20:50 68.0 °F /  20 °C 44.6 °F /  7 °C 30.30in /  1026hPa NNW 0.9mph /  1.4km/h 5.0mph /  8km/h 43% 0.00in /  0mm 0.0 W/m2
20:56 68.5 °F /  20.3 °C 44.6 °F /  7 °C 30.30in /  1026hPa Calm   1.0mph /  1.6km/h 42% 0.00in /  0mm 0.0 W/m2
21:02 68.7 °F /  20.4 °C 44.8 °F /  7.1 °C 30.30in /  1026hPa Calm   1.0mph /  1.6km/h 42% 0.00in /  0mm 0.0 W/m2
21:09 68.9 °F /  20.5 °C 44.8 °F /  7.1 °C 30.30in /  1026hPa Calm   1.0mph /  1.6km/h 42% 0.00in /  0mm 0.0 W/m2
21:15 68.9 °F /  20.5 °C 44.8 °F /  7.1 °C 30.30in /  1026hPa Calm     42% 0.00in /  0mm 0.0 W/m2
21:21 68.7 °F /  20.4 °C 45.3 °F /  7.4 °C 30.30in /  1026hPa Calm   1.0mph /  1.6km/h 43% 0.00in /  0mm 0.0 W/m2
21:27 68.5 °F /  20.3 °C 45.1 °F /  7.3 °C 30.30in /  1026hPa Calm   2.0mph /  3.2km/h 43% 0.00in /  0mm 0.0 W/m2
21:33 68.4 °F /  20.2 °C 45.0 °F /  7.2 °C 30.30in /  1026hPa Calm     43% 0.00in /  0mm 0.0 W/m2
21:39 68.2 °F /  20.1 °C 44.8 °F /  7.1 °C 30.30in /  1026hPa Calm   1.0mph /  1.6km/h 43% 0.00in /  0mm 0.0 W/m2
21:45 67.8 °F /  19.9 °C 45.1 °F /  7.3 °C 30.30in /  1026hPa East 0.9mph /  1.4km/h 2.0mph /  3.2km/h 44% 0.00in /  0mm 0.0 W/m2
21:51 67.6 °F /  19.8 °C 45.0 °F /  7.2 °C 30.30in /  1026hPa Calm   1.0mph /  1.6km/h 44% 0.00in /  0mm 0.0 W/m2
21:58 67.5 °F /  19.7 °C 44.8 °F /  7.1 °C 30.30in /  1026hPa Calm   1.0mph /  1.6km/h 44% 0.00in /  0mm 0.0 W/m2
22:04 67.3 °F /  19.6 °C 45.1 °F /  7.3 °C 30.30in /  1026hPa Calm     45% 0.00in /  0mm 0.0 W/m2
22:10 66.9 °F /  19.4 °C 45.0 °F /  7.2 °C 30.30in /  1026hPa Calm     45% 0.00in /  0mm 0.0 W/m2
22:16 66.7 °F /  19.3 °C 45.3 °F /  7.4 °C 30.30in /  1026hPa Calm   1.0mph /  1.6km/h 46% 0.00in /  0mm 0.0 W/m2
22:22 66.6 °F /  19.2 °C 45.1 °F /  7.3 °C 30.30in /  1026hPa Calm   1.0mph /  1.6km/h 46% 0.00in /  0mm 0.0 W/m2
22:28 66.4 °F /  19.1 °C 45.0 °F /  7.2 °C 30.30in /  1026hPa Calm   1.0mph /  1.6km/h 46% 0.00in /  0mm 0.0 W/m2
22:34 66.0 °F /  18.9 °C 45.1 °F /  7.3 °C 30.30in /  1026hPa Calm   3.0mph /  4.8km/h 47% 0.00in /  0mm 0.0 W/m2
22:41 65.8 °F /  18.8 °C 45.0 °F /  7.2 °C 30.30in /  1026hPa Calm   1.0mph /  1.6km/h 47% 0.00in /  0mm 0.0 W/m2
22:47 65.7 °F /  18.7 °C 45.5 °F /  7.5 °C 30.30in /  1026hPa ENE 0.9mph /  1.4km/h 3.0mph /  4.8km/h 48% 0.00in /  0mm 0.0 W/m2
22:53 65.5 °F /  18.6 °C 45.3 °F /  7.4 °C 30.30in /  1026hPa Calm   1.0mph /  1.6km/h 48% 0.00in /  0mm 0.0 W/m2
22:59 65.1 °F /  18.4 °C 45.5 °F /  7.5 °C 30.31in /  1026.3hPa Calm   1.0mph /  1.6km/h 49% 0.00in /  0mm 0.0 W/m2
23:05 64.9 °F /  18.3 °C 45.3 °F /  7.4 °C 30.31in /  1026.3hPa Calm     49% 0.00in /  0mm 0.0 W/m2
23:11 64.8 °F /  18.2 °C 45.7 °F /  7.6 °C 30.31in /  1026.3hPa ESE 0.9mph /  1.4km/h 1.0mph /  1.6km/h 50% 0.00in /  0mm 0.0 W/m2
23:17 64.8 °F /  18.2 °C 45.7 °F /  7.6 °C 30.30in /  1026hPa Calm     50% 0.00in /  0mm 0.0 W/m2
23:23 64.8 °F /  18.2 °C 45.7 °F /  7.6 °C 30.30in /  1026hPa Calm   1.0mph /  1.6km/h 50% 0.00in /  0mm 0.0 W/m2
23:29 64.8 °F /  18.2 °C 45.7 °F /  7.6 °C 30.30in /  1026hPa ESE 0.9mph /  1.4km/h 3.0mph /  4.8km/h 50% 0.00in /  0mm 0.0 W/m2
23:35 64.8 °F /  18.2 °C 46.2 °F /  7.9 °C 30.30in /  1026hPa Calm   1.0mph /  1.6km/h 51% 0.00in /  0mm 0.0 W/m2
23:41 64.8 °F /  18.2 °C 46.2 °F /  7.9 °C 30.30in /  1026hPa East 0.9mph /  1.4km/h 3.0mph /  4.8km/h 51% 0.00in /  0mm 0.0 W/m2
23:47 64.9 °F /  18.3 °C 45.9 °F /  7.7 °C 30.30in /  1026hPa Calm   2.0mph /  3.2km/h 50% 0.00in /  0mm 0.0 W/m2
23:53 64.9 °F /  18.3 °C 45.9 °F /  7.7 °C 30.30in /  1026hPa NE 0.9mph /  1.4km/h 3.0mph /  4.8km/h 50% 0.00in /  0mm 0.0 W/m2
23:59 64.8 °F /  18.2 °C 46.2 °F /  7.9 °C 30.30in /  1026hPa Calm   1.0mph /  1.6km/h 51% 0.00in /  0mm 0.0 W/m2
Olympia, Windhoek, Namibia
Compliments of Weather Underground - 3 mb